createdAt,value
2017-09-12T00:00:14.258Z,16.2
2017-09-12T00:00:40.401Z,16.16
2017-09-12T00:01:06.544Z,16.16
2017-09-12T00:01:32.663Z,16.23
2017-09-12T00:01:58.792Z,16.28
2017-09-12T00:02:24.912Z,16.26
2017-09-12T00:02:51.031Z,16.32
2017-09-12T00:03:17.188Z,16.35
2017-09-12T00:03:43.328Z,16.28
2017-09-12T00:04:09.437Z,16.26
2017-09-12T00:04:35.561Z,16.32
2017-09-12T00:05:01.679Z,16.31
2017-09-12T00:05:27.802Z,16.26
2017-09-12T00:05:53.924Z,16.23
2017-09-12T00:06:20.043Z,16.2
2017-09-12T00:06:46.183Z,16.28
2017-09-12T00:07:12.316Z,16.28
2017-09-12T00:07:38.431Z,16.29
2017-09-12T00:08:04.564Z,16.13
2017-09-12T00:08:30.678Z,16.28
2017-09-12T00:08:56.801Z,16.17
2017-09-12T00:09:22.927Z,16.16
2017-09-12T00:09:49.059Z,16.17
2017-09-12T00:10:15.185Z,16.2
2017-09-12T00:10:41.301Z,16.17
2017-09-12T00:11:07.423Z,16.26
2017-09-12T00:11:33.549Z,16.21
2017-09-12T00:11:59.686Z,16.28
2017-09-12T00:12:25.811Z,16.28
2017-09-12T00:12:51.938Z,16.23
2017-09-12T00:13:18.057Z,16.23
2017-09-12T00:13:44.189Z,16.28
2017-09-12T00:14:10.309Z,16.24
2017-09-12T00:14:36.429Z,16.29
2017-09-12T00:15:02.558Z,16.26
2017-09-12T00:15:28.676Z,16.15
2017-09-12T00:15:54.807Z,16.17
2017-09-12T00:16:20.930Z,16.24
2017-09-12T00:16:47.045Z,16.17
2017-09-12T00:17:13.174Z,16.26
2017-09-12T00:17:39.295Z,16.26
2017-09-12T00:18:05.423Z,16.23
2017-09-12T00:18:31.549Z,16.24
2017-09-12T00:18:57.672Z,16.17
2017-09-12T00:19:23.816Z,16.15
2017-09-12T00:19:49.935Z,16.12
2017-09-12T00:20:16.058Z,16.16
2017-09-12T00:20:42.181Z,16.16
2017-09-12T00:21:08.312Z,16.33
2017-09-12T00:21:34.449Z,16.24
2017-09-12T00:22:00.567Z,16.24
2017-09-12T00:22:26.695Z,16.24
2017-09-12T00:22:52.819Z,16.26
2017-09-12T00:23:18.943Z,16.16
2017-09-12T00:23:45.069Z,16.08
2017-09-12T00:24:11.190Z,16.12
2017-09-12T00:24:37.316Z,16.12
2017-09-12T00:25:03.434Z,16.17
2017-09-12T00:25:29.562Z,16.24
2017-09-12T00:25:55.709Z,16.17
2017-09-12T00:26:21.815Z,16.13
2017-09-12T00:26:47.934Z,16.2
2017-09-12T00:27:14.054Z,16.23
2017-09-12T00:27:40.175Z,16.15
2017-09-12T00:28:06.294Z,16.16
2017-09-12T00:28:32.423Z,16.09
2017-09-12T00:28:58.550Z,16.15
2017-09-12T00:29:24.696Z,16.09
2017-09-12T00:29:50.828Z,16.02
2017-09-12T00:30:16.946Z,16.12
2017-09-12T00:30:43.069Z,16.15
2017-09-12T00:31:09.196Z,16.15
2017-09-12T00:31:35.315Z,16.16
2017-09-12T00:32:01.439Z,16.12
2017-09-12T00:32:27.560Z,16.16
2017-09-12T00:32:53.689Z,16.04
2017-09-12T00:33:19.814Z,16.13
2017-09-12T00:33:45.937Z,16.13
2017-09-12T00:34:12.063Z,16.04
2017-09-12T00:34:38.178Z,16.01
2017-09-12T00:35:04.324Z,16.01
2017-09-12T00:35:30.442Z,16.1
2017-09-12T00:35:56.592Z,16.1
2017-09-12T00:36:22.715Z,16.13
2017-09-12T00:36:48.860Z,16.13
2017-09-12T00:37:14.988Z,16.17
2017-09-12T00:37:41.113Z,16.2
2017-09-12T00:38:07.235Z,16.21
2017-09-12T00:38:33.356Z,16.23
2017-09-12T00:38:59.485Z,16.28
2017-09-12T00:39:25.610Z,16.32
2017-09-12T00:39:51.729Z,16.28
2017-09-12T00:40:17.856Z,16.24
2017-09-12T00:40:43.977Z,16.16
2017-09-12T00:41:10.095Z,16.09
2017-09-12T00:41:36.220Z,16.09
2017-09-12T00:42:02.351Z,16.16
2017-09-12T00:42:28.470Z,16.1
2017-09-12T00:42:54.591Z,16.1
2017-09-12T00:43:20.717Z,16.09
2017-09-12T00:43:46.844Z,16.05
2017-09-12T00:44:12.964Z,16.12
2017-09-12T00:44:39.089Z,16.17
2017-09-12T00:45:05.209Z,16.13
2017-09-12T00:45:31.328Z,16.13
2017-09-12T00:45:57.457Z,16.24
2017-09-12T00:46:23.577Z,16.24
2017-09-12T00:46:49.705Z,16.26
2017-09-12T00:47:15.834Z,16.29
2017-09-12T00:47:41.974Z,16.21
2017-09-12T00:48:08.104Z,16.32
2017-09-12T00:48:34.221Z,16.24
2017-09-12T00:49:00.344Z,16.31
2017-09-12T00:49:26.462Z,16.23
2017-09-12T00:49:52.584Z,16.28
2017-09-12T00:50:18.725Z,16.29
2017-09-12T00:50:44.867Z,16.28
2017-09-12T00:51:11.021Z,16.26
2017-09-12T00:51:37.168Z,16.29
2017-09-12T00:52:03.311Z,16.2
2017-09-12T00:52:29.453Z,16.23
2017-09-12T00:52:55.607Z,16.2
2017-09-12T00:53:21.758Z,16.13
2017-09-12T00:53:47.903Z,16.21
2017-09-12T00:54:14.054Z,16.32
2017-09-12T00:54:40.198Z,16.31
2017-09-12T00:55:06.355Z,16.32
2017-09-12T00:55:32.495Z,16.29
2017-09-12T00:55:58.643Z,16.24
2017-09-12T00:56:24.788Z,16.28
2017-09-12T00:56:50.941Z,16.17
2017-09-12T00:57:17.080Z,16.15
2017-09-12T00:57:43.230Z,16.09
2017-09-12T00:58:09.378Z,16.17
2017-09-12T00:58:35.523Z,16.15
2017-09-12T00:59:01.667Z,16.24
2017-09-12T00:59:27.815Z,16.28
2017-09-12T00:59:53.955Z,16.24
2017-09-12T01:00:20.098Z,16.28
2017-09-12T01:00:46.252Z,16.29
2017-09-12T01:01:12.404Z,16.29
2017-09-12T01:01:38.547Z,16.26
2017-09-12T01:02:04.695Z,16.29
2017-09-12T01:02:30.843Z,16.29
2017-09-12T01:02:56.985Z,16.24
2017-09-12T01:03:23.140Z,16.23
2017-09-12T01:03:49.282Z,16.29
2017-09-12T01:04:15.436Z,16.26
2017-09-12T01:04:41.604Z,16.28
2017-09-12T01:05:07.745Z,16.29
2017-09-12T01:05:33.895Z,16.24
2017-09-12T01:06:00.037Z,16.23
2017-09-12T01:06:26.186Z,16.26
2017-09-12T01:06:52.329Z,16.31
2017-09-12T01:07:18.477Z,16.21
2017-09-12T01:07:44.629Z,16.26
2017-09-12T01:08:10.775Z,16.31
2017-09-12T01:08:36.919Z,16.33
2017-09-12T01:09:03.066Z,16.26
2017-09-12T01:09:29.217Z,16.28
2017-09-12T01:09:55.362Z,16.28
2017-09-12T01:10:21.511Z,16.24
2017-09-12T01:10:47.649Z,16.23
2017-09-12T01:11:13.806Z,16.23
2017-09-12T01:11:39.944Z,16.21
2017-09-12T01:12:06.089Z,16.09
2017-09-12T01:12:32.234Z,16.15
2017-09-12T01:12:58.409Z,16.1
2017-09-12T01:13:24.556Z,16.09
2017-09-12T01:13:50.710Z,16.12
2017-09-12T01:14:16.859Z,16.17
2017-09-12T01:14:43.000Z,16.31
2017-09-12T01:15:09.147Z,16.24
2017-09-12T01:15:35.297Z,16.24
2017-09-12T01:16:01.446Z,16.31
2017-09-12T01:16:27.584Z,16.31
2017-09-12T01:16:53.726Z,16.31
2017-09-12T01:17:19.877Z,16.23
2017-09-12T01:17:46.024Z,16.2
2017-09-12T01:18:12.177Z,16.23
2017-09-12T01:18:38.321Z,16.26
2017-09-12T01:19:04.472Z,16.23
2017-09-12T01:19:30.616Z,16.24
2017-09-12T01:19:56.761Z,16.26
2017-09-12T01:20:22.915Z,16.23
2017-09-12T01:20:49.063Z,16.28
2017-09-12T01:21:15.209Z,16.32
2017-09-12T01:21:41.355Z,16.16
2017-09-12T01:22:07.507Z,16.15
2017-09-12T01:22:33.649Z,16.15
2017-09-12T01:22:59.793Z,16.12
2017-09-12T01:23:25.947Z,16.12
2017-09-12T01:23:52.088Z,16.15
2017-09-12T01:24:18.242Z,16.1
2017-09-12T01:24:44.387Z,16.05
2017-09-12T01:25:10.529Z,16.13
2017-09-12T01:25:36.677Z,16.15
2017-09-12T01:26:02.824Z,16.15
2017-09-12T01:26:28.963Z,16.12
2017-09-12T01:26:55.118Z,16.15
2017-09-12T01:27:21.256Z,16.17
2017-09-12T01:27:47.408Z,16.13
2017-09-12T01:28:13.552Z,16.2
2017-09-12T01:28:39.703Z,16.17
2017-09-12T01:29:05.851Z,16.2
2017-09-12T01:29:31.997Z,16.21
2017-09-12T01:29:58.140Z,16.16
2017-09-12T01:30:24.289Z,16.16
2017-09-12T01:30:50.439Z,16.2
2017-09-12T01:31:16.579Z,16.23
2017-09-12T01:31:42.732Z,16.16
2017-09-12T01:32:08.875Z,16.28
2017-09-12T01:32:35.029Z,16.32
2017-09-12T01:33:01.192Z,16.28
2017-09-12T01:33:27.319Z,16.28
2017-09-12T01:33:53.466Z,16.17
2017-09-12T01:34:19.616Z,16.1
2017-09-12T01:34:45.767Z,16.17
2017-09-12T01:35:11.915Z,16.21
2017-09-12T01:35:38.057Z,16.15
2017-09-12T01:36:04.205Z,16.16
2017-09-12T01:36:30.348Z,16.21
2017-09-12T01:36:56.497Z,16.24
2017-09-12T01:37:22.640Z,16.26
2017-09-12T01:37:48.791Z,16.2
2017-09-12T01:38:14.939Z,16.29
2017-09-12T01:38:41.090Z,16.21
2017-09-12T01:39:07.246Z,16.15
2017-09-12T01:39:33.397Z,16.13
2017-09-12T01:39:59.535Z,16.15
2017-09-12T01:40:25.689Z,16.2
2017-09-12T01:40:51.832Z,16.17
2017-09-12T01:41:17.979Z,16.15
2017-09-12T01:41:44.147Z,16.17
2017-09-12T01:42:10.297Z,16.17
2017-09-12T01:42:36.445Z,16.09
2017-09-12T01:43:02.584Z,16.1
2017-09-12T01:43:28.729Z,16.15
2017-09-12T01:43:54.870Z,16.21
2017-09-12T01:44:21.025Z,16.21
2017-09-12T01:44:47.198Z,16.21
2017-09-12T01:45:13.342Z,16.21
2017-09-12T01:45:39.492Z,16.17
2017-09-12T01:46:05.641Z,16.2
2017-09-12T01:46:31.792Z,16.12
2017-09-12T01:46:57.939Z,16.15
2017-09-12T01:47:24.080Z,16.15
2017-09-12T01:47:50.234Z,16.1
2017-09-12T01:48:16.380Z,16.15
2017-09-12T01:48:42.524Z,16.28
2017-09-12T01:49:08.670Z,16.17
2017-09-12T01:49:34.820Z,16.24
2017-09-12T01:50:00.969Z,16.24
2017-09-12T01:50:27.113Z,16.24
2017-09-12T01:50:53.265Z,16.23
2017-09-12T01:51:19.410Z,16.31
2017-09-12T01:51:45.557Z,16.31
2017-09-12T01:52:11.697Z,16.36
2017-09-12T01:52:37.870Z,16.31
2017-09-12T01:53:04.022Z,16.41
2017-09-12T01:53:30.171Z,16.31
2017-09-12T01:53:56.317Z,16.26
2017-09-12T01:54:22.461Z,16.36
2017-09-12T01:54:48.611Z,16.31
2017-09-12T01:55:14.755Z,16.41
2017-09-12T01:55:40.904Z,16.46
2017-09-12T01:56:07.069Z,16.39
2017-09-12T01:56:33.223Z,16.38
2017-09-12T01:56:59.375Z,16.43
2017-09-12T01:57:25.520Z,16.46
2017-09-12T01:57:51.668Z,16.49
2017-09-12T01:58:17.811Z,16.43
2017-09-12T01:58:43.953Z,16.43
2017-09-12T01:59:10.107Z,16.36
2017-09-12T01:59:36.247Z,16.46
2017-09-12T02:00:02.398Z,16.46
2017-09-12T02:00:28.544Z,16.31
2017-09-12T02:00:54.691Z,16.33
2017-09-12T02:01:20.838Z,16.28
2017-09-12T02:01:46.982Z,16.31
2017-09-12T02:02:13.132Z,16.35
2017-09-12T02:02:39.276Z,16.13
2017-09-12T02:03:05.421Z,16.15
2017-09-12T02:03:31.570Z,16.12
2017-09-12T02:03:57.716Z,16.15
2017-09-12T02:04:23.859Z,16.09
2017-09-12T02:04:50.013Z,16.16
2017-09-12T02:05:16.185Z,16.16
2017-09-12T02:05:42.329Z,16.15
2017-09-12T02:06:08.479Z,16.15
2017-09-12T02:06:34.630Z,16.26
2017-09-12T02:07:00.777Z,16.23
2017-09-12T02:07:26.919Z,16.26
2017-09-12T02:07:53.091Z,16.26
2017-09-12T02:08:19.245Z,16.24
2017-09-12T02:08:45.388Z,16.28
2017-09-12T02:09:11.534Z,16.24
2017-09-12T02:09:37.679Z,16.29
2017-09-12T02:10:03.818Z,16.29
2017-09-12T02:10:29.997Z,16.23
2017-09-12T02:10:56.153Z,16.31
2017-09-12T02:11:22.296Z,16.36
2017-09-12T02:11:48.445Z,16.38
2017-09-12T02:12:14.595Z,16.28
2017-09-12T02:12:40.737Z,16.28
2017-09-12T02:13:06.881Z,16.28
2017-09-12T02:13:33.024Z,16.23
2017-09-12T02:13:59.174Z,16.13
2017-09-12T02:14:25.318Z,16.16
2017-09-12T02:14:51.469Z,16.16
2017-09-12T02:15:17.609Z,16.15
2017-09-12T02:15:43.757Z,16.16
2017-09-12T02:16:09.900Z,16.26
2017-09-12T02:16:36.053Z,16.23
2017-09-12T02:17:02.199Z,16.29
2017-09-12T02:17:28.349Z,16.31
2017-09-12T02:17:54.498Z,16.26
2017-09-12T02:18:20.637Z,16.29
2017-09-12T02:18:46.787Z,16.29
2017-09-12T02:19:12.935Z,16.35
2017-09-12T02:19:39.076Z,16.29
2017-09-12T02:20:05.229Z,16.36
2017-09-12T02:20:31.377Z,16.39
2017-09-12T02:20:57.517Z,16.39
2017-09-12T02:21:23.660Z,16.35
2017-09-12T02:21:49.838Z,16.35
2017-09-12T02:22:16.003Z,16.29
2017-09-12T02:22:42.156Z,16.28
2017-09-12T02:23:08.304Z,16.29
2017-09-12T02:23:34.446Z,16.24
2017-09-12T02:24:00.598Z,16.38
2017-09-12T02:24:26.738Z,16.31
2017-09-12T02:24:52.883Z,16.31
2017-09-12T02:25:19.035Z,16.36
2017-09-12T02:25:45.189Z,16.35
2017-09-12T02:26:11.353Z,16.29
2017-09-12T02:26:37.502Z,16.31
2017-09-12T02:27:03.654Z,16.29
2017-09-12T02:27:29.798Z,16.29
2017-09-12T02:27:55.946Z,16.28
2017-09-12T02:28:22.090Z,16.31
2017-09-12T02:28:48.236Z,16.26
2017-09-12T02:29:14.382Z,16.41
2017-09-12T02:29:40.521Z,16.28
2017-09-12T02:30:06.669Z,16.31
2017-09-12T02:30:32.853Z,16.36
2017-09-12T02:30:58.968Z,16.35
2017-09-12T02:31:25.122Z,16.35
2017-09-12T02:31:51.268Z,16.31
2017-09-12T02:32:17.434Z,16.32
2017-09-12T02:32:43.578Z,16.29
2017-09-12T02:33:09.731Z,16.28
2017-09-12T02:33:35.871Z,16.33
2017-09-12T02:34:02.026Z,16.26
2017-09-12T02:34:28.168Z,16.29
2017-09-12T02:34:54.312Z,16.15
2017-09-12T02:35:20.460Z,16.1
2017-09-12T02:35:46.608Z,16.16
2017-09-12T02:36:12.757Z,16.24
2017-09-12T02:36:38.910Z,16.16
2017-09-12T02:37:05.054Z,16.17
2017-09-12T02:37:31.205Z,16.12
2017-09-12T02:37:57.374Z,16.1
2017-09-12T02:38:23.525Z,16.17
2017-09-12T02:38:49.676Z,16.29
2017-09-12T02:39:15.818Z,16.17
2017-09-12T02:39:41.966Z,16.29
2017-09-12T02:40:08.142Z,16.24
2017-09-12T02:40:34.281Z,16.23
2017-09-12T02:41:00.436Z,16.15
2017-09-12T02:41:26.583Z,16.24
2017-09-12T02:41:52.728Z,16.29
2017-09-12T02:42:18.878Z,16.28
2017-09-12T02:42:45.025Z,16.28
2017-09-12T02:43:11.173Z,16.28
2017-09-12T02:43:37.318Z,16.29
2017-09-12T02:44:03.458Z,16.32
2017-09-12T02:44:29.601Z,16.24
2017-09-12T02:44:55.745Z,16.31
2017-09-12T02:45:21.892Z,16.26
2017-09-12T02:45:48.032Z,16.26
2017-09-12T02:46:14.186Z,16.31
2017-09-12T02:46:40.335Z,16.26
2017-09-12T02:47:06.477Z,16.26
2017-09-12T02:47:32.625Z,16.26
2017-09-12T02:47:58.767Z,16.23
2017-09-12T02:48:24.921Z,16.29
2017-09-12T02:48:51.086Z,16.32
2017-09-12T02:49:17.217Z,16.29
2017-09-12T02:49:43.362Z,16.35
2017-09-12T02:50:09.505Z,16.31
2017-09-12T02:50:35.655Z,16.26
2017-09-12T02:51:01.799Z,16.29
2017-09-12T02:51:27.948Z,16.32
2017-09-12T02:51:54.093Z,16.26
2017-09-12T02:52:20.243Z,16.26
2017-09-12T02:52:46.392Z,16.29
2017-09-12T02:53:12.539Z,16.35
2017-09-12T02:53:38.682Z,16.28
2017-09-12T02:54:04.833Z,16.29
2017-09-12T02:54:30.973Z,16.26
2017-09-12T02:54:57.127Z,16.29
2017-09-12T02:55:23.270Z,16.29
2017-09-12T02:55:49.413Z,16.31
2017-09-12T02:56:15.569Z,16.28
2017-09-12T02:56:41.714Z,16.29
2017-09-12T02:57:07.859Z,16.23
2017-09-12T02:57:34.013Z,16.28
2017-09-12T02:58:00.154Z,16.29
2017-09-12T02:58:26.306Z,16.31
2017-09-12T02:58:52.453Z,16.26
2017-09-12T02:59:18.596Z,16.26
2017-09-12T02:59:44.747Z,16.28
2017-09-12T03:00:10.889Z,16.29
2017-09-12T03:00:37.037Z,16.31
2017-09-12T03:01:03.186Z,16.29
2017-09-12T03:01:29.334Z,16.23
2017-09-12T03:01:55.481Z,16.28
2017-09-12T03:02:21.634Z,16.32
2017-09-12T03:02:47.777Z,16.36
2017-09-12T03:03:13.925Z,16.41
2017-09-12T03:03:40.070Z,16.33
2017-09-12T03:04:06.210Z,16.29
2017-09-12T03:04:32.388Z,16.28
2017-09-12T03:04:58.528Z,16.24
2017-09-12T03:05:24.710Z,16.31
2017-09-12T03:05:50.860Z,16.28
2017-09-12T03:06:17.003Z,16.23
2017-09-12T03:06:43.152Z,16.32
2017-09-12T03:07:09.297Z,16.29
2017-09-12T03:07:35.444Z,16.29
2017-09-12T03:08:01.588Z,16.26
2017-09-12T03:08:27.740Z,16.39
2017-09-12T03:08:53.885Z,16.32
2017-09-12T03:09:20.039Z,16.31
2017-09-12T03:09:46.179Z,16.32
2017-09-12T03:10:12.327Z,16.26
2017-09-12T03:10:38.475Z,16.33
2017-09-12T03:11:04.620Z,16.35
2017-09-12T03:11:30.768Z,16.41
2017-09-12T03:11:56.916Z,16.33
2017-09-12T03:12:23.090Z,16.39
2017-09-12T03:12:49.230Z,16.41
2017-09-12T03:13:15.384Z,16.41
2017-09-12T03:13:41.558Z,16.42
2017-09-12T03:14:07.695Z,16.41
2017-09-12T03:14:33.870Z,16.35
2017-09-12T03:14:59.993Z,16.29
2017-09-12T03:15:26.141Z,16.29
2017-09-12T03:15:52.293Z,16.29
2017-09-12T03:16:18.462Z,16.28
2017-09-12T03:16:44.615Z,16.26
2017-09-12T03:17:10.752Z,16.26
2017-09-12T03:17:36.910Z,16.16
2017-09-12T03:18:03.056Z,16.21
2017-09-12T03:18:29.209Z,16.21
2017-09-12T03:18:55.357Z,16.15
2017-09-12T03:19:21.524Z,16.12
2017-09-12T03:19:47.668Z,16.2
2017-09-12T03:20:13.814Z,16.28
2017-09-12T03:20:39.964Z,16.28
2017-09-12T03:21:06.113Z,16.28
2017-09-12T03:21:32.263Z,16.28
2017-09-12T03:21:58.408Z,16.31
2017-09-12T03:22:24.552Z,16.28
2017-09-12T03:22:50.700Z,16.35
2017-09-12T03:23:16.849Z,16.16
2017-09-12T03:23:42.999Z,16.15
2017-09-12T03:24:09.152Z,16.13
2017-09-12T03:24:35.288Z,16.26
2017-09-12T03:25:01.433Z,16.16
2017-09-12T03:25:27.585Z,16.29
2017-09-12T03:25:53.725Z,16.31
2017-09-12T03:26:19.878Z,16.28
2017-09-12T03:26:46.021Z,16.26
2017-09-12T03:27:12.171Z,16.28
2017-09-12T03:27:38.313Z,16.15
2017-09-12T03:28:04.466Z,16.16
2017-09-12T03:28:30.619Z,16.13
2017-09-12T03:28:56.758Z,16.23
2017-09-12T03:29:22.904Z,16.16
2017-09-12T03:29:49.055Z,16.23
2017-09-12T03:30:15.201Z,16.2
2017-09-12T03:30:41.354Z,16.16
2017-09-12T03:31:07.503Z,16.16
2017-09-12T03:31:33.646Z,16.28
2017-09-12T03:31:59.796Z,16.17
2017-09-12T03:32:25.938Z,16.15
2017-09-12T03:32:52.086Z,16.16
2017-09-12T03:33:18.237Z,16.1
2017-09-12T03:33:44.383Z,16.09
2017-09-12T03:34:10.530Z,16.12
2017-09-12T03:34:36.680Z,16.09
2017-09-12T03:35:02.825Z,16.1
2017-09-12T03:35:28.999Z,16
2017-09-12T03:35:55.167Z,16.12
2017-09-12T03:36:21.307Z,16.13
2017-09-12T03:36:47.482Z,16.12
2017-09-12T03:37:13.608Z,16.1
2017-09-12T03:37:39.752Z,16.08
2017-09-12T03:38:05.906Z,16.17
2017-09-12T03:38:32.054Z,16.1
2017-09-12T03:38:58.206Z,16.12
2017-09-12T03:39:24.350Z,16.08
2017-09-12T03:39:50.486Z,16.12
2017-09-12T03:40:16.641Z,16.09
2017-09-12T03:40:42.787Z,16.1
2017-09-12T03:41:08.934Z,16.08
2017-09-12T03:41:35.081Z,16.09
2017-09-12T03:42:01.232Z,16.12
2017-09-12T03:42:27.378Z,16.08
2017-09-12T03:42:53.518Z,16.08
2017-09-12T03:43:19.664Z,16.09
2017-09-12T03:43:45.816Z,16.05
2017-09-12T03:44:11.968Z,16.13
2017-09-12T03:44:38.109Z,16.15
2017-09-12T03:45:04.287Z,16.15
2017-09-12T03:45:30.415Z,16.05
2017-09-12T03:45:56.557Z,16.15
2017-09-12T03:46:22.705Z,15.98
2017-09-12T03:46:48.842Z,16.04
2017-09-12T03:47:14.997Z,16.02
2017-09-12T03:47:41.143Z,15.97
2017-09-12T03:48:07.294Z,15.83
2017-09-12T03:48:33.439Z,15.84
2017-09-12T03:48:59.581Z,15.98
2017-09-12T03:49:25.737Z,15.98
2017-09-12T03:49:51.881Z,16.01
2017-09-12T03:50:18.033Z,15.88
2017-09-12T03:50:44.174Z,15.97
2017-09-12T03:51:10.328Z,16.01
2017-09-12T03:51:36.469Z,16.04
2017-09-12T03:52:02.615Z,16.04
2017-09-12T03:52:28.769Z,16.1
2017-09-12T03:52:54.916Z,16.12
2017-09-12T03:53:21.091Z,16.09
2017-09-12T03:53:47.244Z,16.02
2017-09-12T03:54:13.385Z,16.1
2017-09-12T03:54:39.535Z,16.04
2017-09-12T03:55:05.679Z,15.98
2017-09-12T03:55:31.832Z,16.05
2017-09-12T03:55:57.974Z,16.02
2017-09-12T03:56:24.120Z,16.01
2017-09-12T03:56:50.265Z,16.01
2017-09-12T03:57:16.409Z,16.05
2017-09-12T03:57:42.561Z,16.02
2017-09-12T03:58:08.706Z,16
2017-09-12T03:58:34.851Z,16
2017-09-12T03:59:01.006Z,16.01
2017-09-12T03:59:27.157Z,16.02
2017-09-12T03:59:53.298Z,16
2017-09-12T04:00:19.441Z,16
2017-09-12T04:00:45.590Z,15.94
2017-09-12T04:01:11.735Z,15.82
2017-09-12T04:01:37.885Z,15.82
2017-09-12T04:02:04.029Z,15.79
2017-09-12T04:02:30.172Z,15.7
2017-09-12T04:02:56.325Z,15.75
2017-09-12T04:03:22.480Z,15.68
2017-09-12T04:03:48.621Z,15.79
2017-09-12T04:04:14.769Z,15.86
2017-09-12T04:04:40.917Z,15.76
2017-09-12T04:05:07.055Z,15.83
2017-09-12T04:05:33.231Z,15.82
2017-09-12T04:05:59.372Z,15.84
2017-09-12T04:06:25.526Z,15.86
2017-09-12T04:06:51.675Z,15.9
2017-09-12T04:07:17.850Z,15.83
2017-09-12T04:07:44.001Z,15.92
2017-09-12T04:08:10.150Z,15.82
2017-09-12T04:08:36.301Z,15.98
2017-09-12T04:09:02.478Z,15.94
2017-09-12T04:09:28.621Z,15.92
2017-09-12T04:09:54.804Z,16.04
2017-09-12T04:10:20.948Z,15.98
2017-09-12T04:10:47.097Z,16.01
2017-09-12T04:11:13.242Z,16
2017-09-12T04:11:39.392Z,15.92
2017-09-12T04:12:05.544Z,16.02
2017-09-12T04:12:31.686Z,15.92
2017-09-12T04:12:57.834Z,16
2017-09-12T04:13:23.985Z,15.97
2017-09-12T04:13:50.133Z,16
2017-09-12T04:14:16.277Z,15.98
2017-09-12T04:14:42.428Z,15.84
2017-09-12T04:15:08.568Z,15.84
2017-09-12T04:15:34.713Z,15.83
2017-09-12T04:16:00.866Z,15.9
2017-09-12T04:16:27.011Z,15.86
2017-09-12T04:16:53.161Z,15.86
2017-09-12T04:17:19.308Z,15.82
2017-09-12T04:17:45.455Z,15.84
2017-09-12T04:18:11.599Z,15.92
2017-09-12T04:18:37.754Z,15.98
2017-09-12T04:19:03.902Z,16.01
2017-09-12T04:19:30.044Z,15.97
2017-09-12T04:19:56.196Z,16.08
2017-09-12T04:20:22.342Z,16
2017-09-12T04:20:48.481Z,16.02
2017-09-12T04:21:14.635Z,16.04
2017-09-12T04:21:40.778Z,15.95
2017-09-12T04:22:06.937Z,16.01
2017-09-12T04:22:33.091Z,15.91
2017-09-12T04:22:59.226Z,15.91
2017-09-12T04:23:25.367Z,16.1
2017-09-12T04:23:51.513Z,16.01
2017-09-12T04:24:17.665Z,16.04
2017-09-12T04:24:43.802Z,16.12
2017-09-12T04:25:09.951Z,16.1
2017-09-12T04:25:36.110Z,16.04
2017-09-12T04:26:02.248Z,16.12
2017-09-12T04:26:28.396Z,16.01
2017-09-12T04:26:54.550Z,16.08
2017-09-12T04:27:20.694Z,15.94
2017-09-12T04:27:46.840Z,15.82
2017-09-12T04:28:12.986Z,15.84
2017-09-12T04:28:39.163Z,15.86
2017-09-12T04:29:05.313Z,15.83
2017-09-12T04:29:31.464Z,15.76
2017-09-12T04:29:57.636Z,15.82
2017-09-12T04:30:23.780Z,15.73
2017-09-12T04:30:49.923Z,15.76
2017-09-12T04:31:16.063Z,15.7
2017-09-12T04:31:42.216Z,15.73
2017-09-12T04:32:08.359Z,15.73
2017-09-12T04:32:34.510Z,15.73
2017-09-12T04:33:00.659Z,15.73
2017-09-12T04:33:26.802Z,15.7
2017-09-12T04:33:52.957Z,15.7
2017-09-12T04:34:19.097Z,15.7
2017-09-12T04:34:45.274Z,15.7
2017-09-12T04:35:11.453Z,15.77
2017-09-12T04:35:37.597Z,15.7
2017-09-12T04:36:03.746Z,15.77
2017-09-12T04:36:29.896Z,15.73
2017-09-12T04:36:56.039Z,15.77
2017-09-12T04:37:22.193Z,15.88
2017-09-12T04:37:48.338Z,15.88
2017-09-12T04:38:14.481Z,15.8
2017-09-12T04:38:40.630Z,15.9
2017-09-12T04:39:06.780Z,15.79
2017-09-12T04:39:32.926Z,15.9
2017-09-12T04:39:59.076Z,15.8
2017-09-12T04:40:25.221Z,15.82
2017-09-12T04:40:51.371Z,15.77
2017-09-12T04:41:17.519Z,15.76
2017-09-12T04:41:43.687Z,15.73
2017-09-12T04:42:09.867Z,15.68
2017-09-12T04:42:36.010Z,15.68
2017-09-12T04:43:02.171Z,15.65
2017-09-12T04:43:28.320Z,15.73
2017-09-12T04:43:54.461Z,15.72
2017-09-12T04:44:20.603Z,15.7
2017-09-12T04:44:46.751Z,15.64
2017-09-12T04:45:12.896Z,15.64
2017-09-12T04:45:39.044Z,15.59
2017-09-12T04:46:05.197Z,15.59
2017-09-12T04:46:31.337Z,15.65
2017-09-12T04:46:57.491Z,15.62
2017-09-12T04:47:23.657Z,15.64
2017-09-12T04:47:49.802Z,15.59
2017-09-12T04:48:15.948Z,15.55
2017-09-12T04:48:42.095Z,15.58
2017-09-12T04:49:08.236Z,15.55
2017-09-12T04:49:34.390Z,15.47
2017-09-12T04:50:00.532Z,15.49
2017-09-12T04:50:26.676Z,15.57
2017-09-12T04:50:52.836Z,15.51
2017-09-12T04:51:18.978Z,15.49
2017-09-12T04:51:45.127Z,15.47
2017-09-12T04:52:11.270Z,15.47
2017-09-12T04:52:37.451Z,15.52
2017-09-12T04:53:03.598Z,15.51
2017-09-12T04:53:29.750Z,15.55
2017-09-12T04:53:55.896Z,15.55
2017-09-12T04:54:22.040Z,15.58
2017-09-12T04:54:48.214Z,15.54
2017-09-12T04:55:14.329Z,15.49
2017-09-12T04:55:40.472Z,15.47
2017-09-12T04:56:06.626Z,15.49
2017-09-12T04:56:32.780Z,15.51
2017-09-12T04:56:58.923Z,15.54
2017-09-12T04:57:25.074Z,15.47
2017-09-12T04:57:51.222Z,15.58
2017-09-12T04:58:17.363Z,15.51
2017-09-12T04:58:43.520Z,15.52
2017-09-12T04:59:09.668Z,15.54
2017-09-12T04:59:35.810Z,15.52
2017-09-12T05:00:01.963Z,15.55
2017-09-12T05:00:28.112Z,15.52
2017-09-12T05:00:54.258Z,15.57
2017-09-12T05:01:20.431Z,15.52
2017-09-12T05:01:46.581Z,15.57
2017-09-12T05:02:12.721Z,15.58
2017-09-12T05:02:38.869Z,15.61
2017-09-12T05:03:05.025Z,15.57
2017-09-12T05:03:31.168Z,15.64
2017-09-12T05:03:57.317Z,15.64
2017-09-12T05:04:23.456Z,15.67
2017-09-12T05:04:49.604Z,15.68
2017-09-12T05:05:15.757Z,15.65
2017-09-12T05:05:41.900Z,15.75
2017-09-12T05:06:08.041Z,15.72
2017-09-12T05:06:34.192Z,15.72
2017-09-12T05:07:00.345Z,15.75
2017-09-12T05:07:26.488Z,15.75
2017-09-12T05:07:52.642Z,15.73
2017-09-12T05:08:18.785Z,15.65
2017-09-12T05:08:44.936Z,15.67
2017-09-12T05:09:11.086Z,15.72
2017-09-12T05:09:37.228Z,15.68
2017-09-12T05:10:03.379Z,15.72
2017-09-12T05:10:29.530Z,15.76
2017-09-12T05:10:55.673Z,15.75
2017-09-12T05:11:21.829Z,15.73
2017-09-12T05:11:47.969Z,15.7
2017-09-12T05:12:14.114Z,15.72
2017-09-12T05:12:40.270Z,15.68
2017-09-12T05:13:06.419Z,15.7
2017-09-12T05:13:32.560Z,15.7
2017-09-12T05:13:58.730Z,15.7
2017-09-12T05:14:24.880Z,15.73
2017-09-12T05:14:51.022Z,15.68
2017-09-12T05:15:17.174Z,15.72
2017-09-12T05:15:43.321Z,15.82
2017-09-12T05:16:09.468Z,15.75
2017-09-12T05:16:35.612Z,15.73
2017-09-12T05:17:01.790Z,15.67
2017-09-12T05:17:27.939Z,15.67
2017-09-12T05:17:54.092Z,15.62
2017-09-12T05:18:20.234Z,15.62
2017-09-12T05:18:46.381Z,15.52
2017-09-12T05:19:12.530Z,15.64
2017-09-12T05:19:38.677Z,15.64
2017-09-12T05:20:04.829Z,15.59
2017-09-12T05:20:30.973Z,15.55
2017-09-12T05:20:57.125Z,15.57
2017-09-12T05:21:23.296Z,15.59
2017-09-12T05:21:49.440Z,15.52
2017-09-12T05:22:15.589Z,15.51
2017-09-12T05:22:41.732Z,15.55
2017-09-12T05:23:07.882Z,15.55
2017-09-12T05:23:34.028Z,15.52
2017-09-12T05:24:00.182Z,15.57
2017-09-12T05:24:26.328Z,15.65
2017-09-12T05:24:52.468Z,15.58
2017-09-12T05:25:18.610Z,15.51
2017-09-12T05:25:44.759Z,15.57
2017-09-12T05:26:10.918Z,15.61
2017-09-12T05:26:37.064Z,15.65
2017-09-12T05:27:03.210Z,15.64
2017-09-12T05:27:29.358Z,15.73
2017-09-12T05:27:55.530Z,15.73
2017-09-12T05:28:21.683Z,15.77
2017-09-12T05:28:47.825Z,15.65
2017-09-12T05:29:13.979Z,15.67
2017-09-12T05:29:40.145Z,15.62
2017-09-12T05:30:06.309Z,15.59
2017-09-12T05:30:32.469Z,15.55
2017-09-12T05:30:58.639Z,15.61
2017-09-12T05:31:24.779Z,15.62
2017-09-12T05:31:50.932Z,15.62
2017-09-12T05:32:17.081Z,15.64
2017-09-12T05:32:43.223Z,15.65
2017-09-12T05:33:09.366Z,15.58
2017-09-12T05:33:35.545Z,15.54
2017-09-12T05:34:01.694Z,15.47
2017-09-12T05:34:27.848Z,15.51
2017-09-12T05:34:53.988Z,15.59
2017-09-12T05:35:20.137Z,15.52
2017-09-12T05:35:46.287Z,15.65
2017-09-12T05:36:12.429Z,15.68
2017-09-12T05:36:38.575Z,15.54
2017-09-12T05:37:04.726Z,15.59
2017-09-12T05:37:30.876Z,15.64
2017-09-12T05:37:57.018Z,15.62